Belle Plain, Colorado
Current Conditions -  °F | °C
As of 10:53 AM on Monday 22 Dec 2014 (Local Time) from KPUB Reporting Station
Overcast Overcast  
Wind Chill: 35°   Ceiling: 10000
Heat Index: 40°   Visibility: 10mi
Dew Point: 31°   Wind: 7mph
Humidity: 70%   Direction: 190°S
Pressure: 29.73"   Gusts: NA
Location:  38.2964°N, 104.538°W
Report Text: KPUB 221753Z 19006KT 10SM OVC100 04/M01 A2973 RMK AO2 SLP058 T00441006 10050 21006 58013
Loading
Personal Weather Stations






























Interactive Weather Map New forecast layout! Learn more

10-Day Weather Forecast

Advertisements
Track Severe Weather on mobile